Saint-Stanislas, Canada
Current Conditions -  °F | °C
As of 5:00 AM on Monday 22 Dec 2014 (Local Time) from CYRJ Reporting Station
Clear Clear  
Wind Chill:   Ceiling: Unl
Heat Index:   Visibility: 20mi
Dew Point:   Wind: 2mph
Humidity: 85%   Direction: 340°NNW
Pressure: 30.38"   Gusts: NA
Location:  49°N, 72.17°W
Report Text: CYRJ 221000Z 34002KT 20SM M14/M16 A3038 RMK SLP307
Loading
Personal Weather Stations






























Interactive Weather Map New forecast layout! Learn more

10-Day Weather Forecast

Advertisements
Track Severe Weather on mobile